sensor_id;sensor_type;location;lat;lon;timestamp;temperature;humidity
19892;DHT22;10108;50.142;8.724;2022-12-26T00:01:00;10.80;98.80
19892;DHT22;10108;50.142;8.724;2022-12-26T00:03:27;10.80;1.00
19892;DHT22;10108;50.142;8.724;2022-12-26T00:05:55;10.90;99.90
19892;DHT22;10108;50.142;8.724;2022-12-26T00:08:21;10.90;99.90
19892;DHT22;10108;50.142;8.724;2022-12-26T00:10:47;10.90;99.90
19892;DHT22;10108;50.142;8.724;2022-12-26T00:13:14;10.90;99.90
19892;DHT22;10108;50.142;8.724;2022-12-26T00:15:40;10.90;11.80
19892;DHT22;10108;50.142;8.724;2022-12-26T00:18:06;10.90;52.10
19892;DHT22;10108;50.142;8.724;2022-12-26T00:20:33;10.90;62.40
19892;DHT22;10108;50.142;8.724;2022-12-26T00:22:59;10.90;1.00
19892;DHT22;10108;50.142;8.724;2022-12-26T00:25:26;10.90;77.70
19892;DHT22;10108;50.142;8.724;2022-12-26T00:27:52;10.90;99.90
19892;DHT22;10108;50.142;8.724;2022-12-26T00:30:18;10.90;96.00
19892;DHT22;10108;50.142;8.724;2022-12-26T00:32:44;10.90;1.00
19892;DHT22;10108;50.142;8.724;2022-12-26T00:35:10;10.90;55.50
19892;DHT22;10108;50.142;8.724;2022-12-26T00:37:37;10.90;4.20
19892;DHT22;10108;50.142;8.724;2022-12-26T00:40:03;10.90;1.00
19892;DHT22;10108;50.142;8.724;2022-12-26T00:42:29;10.90;1.00
19892;DHT22;10108;50.142;8.724;2022-12-26T00:44:55;10.90;1.00
19892;DHT22;10108;50.142;8.724;2022-12-26T00:47:21;10.90;1.00
19892;DHT22;10108;50.142;8.724;2022-12-26T00:49:47;10.90;1.00
19892;DHT22;10108;50.142;8.724;2022-12-26T00:52:14;10.90;1.00
19892;DHT22;10108;50.142;8.724;2022-12-26T00:54:40;10.90;1.00
19892;DHT22;10108;50.142;8.724;2022-12-26T00:57:06;10.90;1.00
19892;DHT22;10108;50.142;8.724;2022-12-26T00:59:32;10.90;1.00
19892;DHT22;10108;50.142;8.724;2022-12-26T01:01:59;10.90;1.00
19892;DHT22;10108;50.142;8.724;2022-12-26T01:04:25;10.90;1.00
19892;DHT22;10108;50.142;8.724;2022-12-26T01:06:52;10.90;34.30
19892;DHT22;10108;50.142;8.724;2022-12-26T01:09:18;10.90;1.00
19892;DHT22;10108;50.142;8.724;2022-12-26T01:11:44;10.90;1.00
19892;DHT22;10108;50.142;8.724;2022-12-26T01:14:13;10.90;1.00
19892;DHT22;10108;50.142;8.724;2022-12-26T01:16:41;10.90;1.00
19892;DHT22;10108;50.142;8.724;2022-12-26T01:19:08;10.90;1.00
19892;DHT22;10108;50.142;8.724;2022-12-26T01:21:34;10.90;1.00
19892;DHT22;10108;50.142;8.724;2022-12-26T01:24:00;10.90;1.00
19892;DHT22;10108;50.142;8.724;2022-12-26T01:26:26;10.90;1.00
19892;DHT22;10108;50.142;8.724;2022-12-26T01:28:53;10.90;1.00
19892;DHT22;10108;50.142;8.724;2022-12-26T01:31:20;11.00;1.00
19892;DHT22;10108;50.142;8.724;2022-12-26T01:33:46;10.90;1.00
19892;DHT22;10108;50.142;8.724;2022-12-26T01:36:13;10.90;1.00
19892;DHT22;10108;50.142;8.724;2022-12-26T01:38:40;10.90;1.00
19892;DHT22;10108;50.142;8.724;2022-12-26T01:41:06;11.00;1.00
19892;DHT22;10108;50.142;8.724;2022-12-26T01:43:58;10.90;1.00
19892;DHT22;10108;50.142;8.724;2022-12-26T01:51:49;11.00;1.00
19892;DHT22;10108;50.142;8.724;2022-12-26T01:54:17;11.00;1.00
19892;DHT22;10108;50.142;8.724;2022-12-26T01:56:44;11.00;1.00
19892;DHT22;10108;50.142;8.724;2022-12-26T01:59:17;11.00;1.00
19892;DHT22;10108;50.142;8.724;2022-12-26T02:01:46;10.90;1.00
19892;DHT22;10108;50.142;8.724;2022-12-26T02:04:20;11.00;1.00
19892;DHT22;10108;50.142;8.724;2022-12-26T02:07:06;11.00;1.00
19892;DHT22;10108;50.142;8.724;2022-12-26T02:09:32;11.00;1.00
19892;DHT22;10108;50.142;8.724;2022-12-26T02:12:06;11.00;1.00
19892;DHT22;10108;50.142;8.724;2022-12-26T02:14:33;11.00;1.00
19892;DHT22;10108;50.142;8.724;2022-12-26T02:17:00;11.00;1.00
19892;DHT22;10108;50.142;8.724;2022-12-26T02:19:34;11.00;1.00
19892;DHT22;10108;50.142;8.724;2022-12-26T02:31:10;11.10;99.90
19892;DHT22;10108;50.142;8.724;2022-12-26T02:34:08;11.10;99.90
19892;DHT22;10108;50.142;8.724;2022-12-26T02:37:02;11.00;4.40
19892;DHT22;10108;50.142;8.724;2022-12-26T02:45:39;11.00;1.00
19892;DHT22;10108;50.142;8.724;2022-12-26T02:57:05;11.00;1.00
19892;DHT22;10108;50.142;8.724;2022-12-26T03:00:07;11.10;1.00
19892;DHT22;10108;50.142;8.724;2022-12-26T03:08:47;11.00;1.00
19892;DHT22;10108;50.142;8.724;2022-12-26T03:11:38;11.10;1.00
19892;DHT22;10108;50.142;8.724;2022-12-26T03:14:28;11.00;1.00
19892;DHT22;10108;50.142;8.724;2022-12-26T03:17:01;11.00;1.00
19892;DHT22;10108;50.142;8.724;2022-12-26T03:22:39;11.00;1.00
19892;DHT22;10108;50.142;8.724;2022-12-26T03:25:11;11.00;1.00
19892;DHT22;10108;50.142;8.724;2022-12-26T03:27:57;10.90;1.00
19892;DHT22;10108;50.142;8.724;2022-12-26T03:30:23;11.00;1.00
19892;DHT22;10108;50.142;8.724;2022-12-26T03:33:08;10.90;1.00
19892;DHT22;10108;50.142;8.724;2022-12-26T03:35:55;10.90;1.00
19892;DHT22;10108;50.142;8.724;2022-12-26T03:38:31;10.90;99.90
19892;DHT22;10108;50.142;8.724;2022-12-26T03:41:10;10.90;1.00
19892;DHT22;10108;50.142;8.724;2022-12-26T03:47:16;11.00;1.00
19892;DHT22;10108;50.142;8.724;2022-12-26T03:50:21;10.90;1.00
19892;DHT22;10108;50.142;8.724;2022-12-26T03:53:19;11.00;1.00
19892;DHT22;10108;50.142;8.724;2022-12-26T03:56:16;10.90;1.00
19892;DHT22;10108;50.142;8.724;2022-12-26T03:59:12;10.90;1.00
19892;DHT22;10108;50.142;8.724;2022-12-26T04:02:02;10.90;1.00
19892;DHT22;10108;50.142;8.724;2022-12-26T04:04:50;10.80;99.90
19892;DHT22;10108;50.142;8.724;2022-12-26T04:07:41;10.90;99.90
19892;DHT22;10108;50.142;8.724;2022-12-26T04:10:54;10.90;99.90
19892;DHT22;10108;50.142;8.724;2022-12-26T04:17:30;10.90;99.90
19892;DHT22;10108;50.142;8.724;2022-12-26T04:26:08;10.80;99.90
19892;DHT22;10108;50.142;8.724;2022-12-26T04:28:56;10.90;99.90
19892;DHT22;10108;50.142;8.724;2022-12-26T04:35:05;10.80;99.90
19892;DHT22;10108;50.142;8.724;2022-12-26T04:37:51;10.80;1.00
19892;DHT22;10108;50.142;8.724;2022-12-26T04:40:40;10.90;1.00
19892;DHT22;10108;50.142;8.724;2022-12-26T04:43:28;10.90;1.00
19892;DHT22;10108;50.142;8.724;2022-12-26T04:46:14;10.90;1.00
19892;DHT22;10108;50.142;8.724;2022-12-26T04:48:45;10.90;1.00
19892;DHT22;10108;50.142;8.724;2022-12-26T04:51:30;10.90;1.00
19892;DHT22;10108;50.142;8.724;2022-12-26T04:53:56;11.00;1.00
19892;DHT22;10108;50.142;8.724;2022-12-26T04:56:22;11.00;1.00
19892;DHT22;10108;50.142;8.724;2022-12-26T04:58:49;11.00;1.00
19892;DHT22;10108;50.142;8.724;2022-12-26T05:01:15;11.00;1.00
19892;DHT22;10108;50.142;8.724;2022-12-26T05:04:00;11.00;1.00
19892;DHT22;10108;50.142;8.724;2022-12-26T05:06:45;11.00;1.00
19892;DHT22;10108;50.142;8.724;2022-12-26T05:09:30;11.10;1.00
19892;DHT22;10108;50.142;8.724;2022-12-26T05:12:00;11.10;1.00
19892;DHT22;10108;50.142;8.724;2022-12-26T05:14:26;11.10;1.00
19892;DHT22;10108;50.142;8.724;2022-12-26T05:16:53;11.00;50.30
19892;DHT22;10108;50.142;8.724;2022-12-26T05:19:38;11.00;1.00
19892;DHT22;10108;50.142;8.724;2022-12-26T05:22:23;11.00;1.00
19892;DHT22;10108;50.142;8.724;2022-12-26T05:25:20;11.00;1.00
19892;DHT22;10108;50.142;8.724;2022-12-26T05:28:16;11.00;1.00
19892;DHT22;10108;50.142;8.724;2022-12-26T05:31:02;11.10;1.00
19892;DHT22;10108;50.142;8.724;2022-12-26T05:33:29;11.10;1.00
19892;DHT22;10108;50.142;8.724;2022-12-26T05:36:15;11.10;1.00
19892;DHT22;10108;50.142;8.724;2022-12-26T05:38:42;11.20;1.00
19892;DHT22;10108;50.142;8.724;2022-12-26T05:41:08;11.10;1.00
19892;DHT22;10108;50.142;8.724;2022-12-26T05:43:34;11.10;1.00
19892;DHT22;10108;50.142;8.724;2022-12-26T05:46:00;11.10;1.00
19892;DHT22;10108;50.142;8.724;2022-12-26T05:48:26;11.10;1.00
19892;DHT22;10108;50.142;8.724;2022-12-26T05:50:57;11.10;1.00
19892;DHT22;10108;50.142;8.724;2022-12-26T05:53:24;11.20;1.00
19892;DHT22;10108;50.142;8.724;2022-12-26T05:55:50;11.20;1.00
19892;DHT22;10108;50.142;8.724;2022-12-26T05:58:16;11.20;1.00
19892;DHT22;10108;50.142;8.724;2022-12-26T06:00:42;11.20;1.00
19892;DHT22;10108;50.142;8.724;2022-12-26T06:03:08;11.20;1.00
19892;DHT22;10108;50.142;8.724;2022-12-26T06:05:34;11.20;1.00
19892;DHT22;10108;50.142;8.724;2022-12-26T06:08:00;11.20;1.00
19892;DHT22;10108;50.142;8.724;2022-12-26T06:10:27;11.30;1.00
19892;DHT22;10108;50.142;8.724;2022-12-26T06:12:55;11.20;1.00
19892;DHT22;10108;50.142;8.724;2022-12-26T06:15:21;11.20;1.00
19892;DHT22;10108;50.142;8.724;2022-12-26T06:17:47;11.20;1.00
19892;DHT22;10108;50.142;8.724;2022-12-26T06:20:14;11.30;99.90
19892;DHT22;10108;50.142;8.724;2022-12-26T06:22:40;11.30;99.90
19892;DHT22;10108;50.142;8.724;2022-12-26T06:25:06;11.30;1.00
19892;DHT22;10108;50.142;8.724;2022-12-26T06:27:32;11.40;1.00
19892;DHT22;10108;50.142;8.724;2022-12-26T06:29:59;11.40;1.00
19892;DHT22;10108;50.142;8.724;2022-12-26T06:32:25;11.40;1.00
19892;DHT22;10108;50.142;8.724;2022-12-26T06:34:51;11.30;1.00
19892;DHT22;10108;50.142;8.724;2022-12-26T06:37:17;11.30;1.00
19892;DHT22;10108;50.142;8.724;2022-12-26T06:39:43;11.30;99.90
19892;DHT22;10108;50.142;8.724;2022-12-26T06:42:09;11.30;99.90
19892;DHT22;10108;50.142;8.724;2022-12-26T06:44:35;11.30;99.90
19892;DHT22;10108;50.142;8.724;2022-12-26T06:47:01;11.30;99.90
19892;DHT22;10108;50.142;8.724;2022-12-26T06:49:28;11.30;1.00
19892;DHT22;10108;50.142;8.724;2022-12-26T06:51:54;11.30;1.00
19892;DHT22;10108;50.142;8.724;2022-12-26T06:54:20;11.30;99.90
19892;DHT22;10108;50.142;8.724;2022-12-26T06:56:46;11.20;99.90
19892;DHT22;10108;50.142;8.724;2022-12-26T06:59:12;11.20;99.90
19892;DHT22;10108;50.142;8.724;2022-12-26T07:01:38;11.20;99.90
19892;DHT22;10108;50.142;8.724;2022-12-26T07:04:04;11.20;1.00
19892;DHT22;10108;50.142;8.724;2022-12-26T07:06:36;11.10;99.90
19892;DHT22;10108;50.142;8.724;2022-12-26T07:09:07;11.20;99.90
19892;DHT22;10108;50.142;8.724;2022-12-26T07:11:36;11.20;1.00
19892;DHT22;10108;50.142;8.724;2022-12-26T07:14:03;11.20;1.00
19892;DHT22;10108;50.142;8.724;2022-12-26T07:16:29;11.20;1.00
19892;DHT22;10108;50.142;8.724;2022-12-26T07:18:57;11.20;1.00
19892;DHT22;10108;50.142;8.724;2022-12-26T07:21:24;11.30;99.90
19892;DHT22;10108;50.142;8.724;2022-12-26T07:23:51;11.30;99.90
19892;DHT22;10108;50.142;8.724;2022-12-26T07:26:17;11.20;99.90
19892;DHT22;10108;50.142;8.724;2022-12-26T07:28:43;11.20;1.00
19892;DHT22;10108;50.142;8.724;2022-12-26T07:31:15;11.30;99.90
19892;DHT22;10108;50.142;8.724;2022-12-26T07:33:41;11.30;1.00
19892;DHT22;10108;50.142;8.724;2022-12-26T07:36:08;11.30;93.90
19892;DHT22;10108;50.142;8.724;2022-12-26T07:38:34;11.30;1.00
19892;DHT22;10108;50.142;8.724;2022-12-26T07:41:00;11.30;99.90
19892;DHT22;10108;50.142;8.724;2022-12-26T07:43:49;11.30;99.90
19892;DHT22;10108;50.142;8.724;2022-12-26T07:46:15;11.20;1.00
19892;DHT22;10108;50.142;8.724;2022-12-26T07:48:41;11.10;1.00
19892;DHT22;10108;50.142;8.724;2022-12-26T07:51:07;11.00;1.00
19892;DHT22;10108;50.142;8.724;2022-12-26T07:53:34;10.90;1.00
19892;DHT22;10108;50.142;8.724;2022-12-26T07:56:00;10.80;1.00
19892;DHT22;10108;50.142;8.724;2022-12-26T07:58:26;10.80;1.00
19892;DHT22;10108;50.142;8.724;2022-12-26T08:00:52;10.70;50.90
19892;DHT22;10108;50.142;8.724;2022-12-26T08:03:18;10.60;99.90
19892;DHT22;10108;50.142;8.724;2022-12-26T08:05:46;10.60;99.90
19892;DHT22;10108;50.142;8.724;2022-12-26T08:08:12;10.60;99.90
19892;DHT22;10108;50.142;8.724;2022-12-26T08:10:38;10.60;99.90
19892;DHT22;10108;50.142;8.724;2022-12-26T08:13:05;10.60;99.90
19892;DHT22;10108;50.142;8.724;2022-12-26T08:15:31;10.60;1.00
19892;DHT22;10108;50.142;8.724;2022-12-26T08:17:57;10.60;1.00
19892;DHT22;10108;50.142;8.724;2022-12-26T08:20:23;10.60;1.00
19892;DHT22;10108;50.142;8.724;2022-12-26T08:22:49;10.60;1.00
19892;DHT22;10108;50.142;8.724;2022-12-26T08:25:15;10.60;1.00
19892;DHT22;10108;50.142;8.724;2022-12-26T08:27:43;10.60;1.00
19892;DHT22;10108;50.142;8.724;2022-12-26T08:30:09;10.50;5.90
19892;DHT22;10108;50.142;8.724;2022-12-26T08:32:35;10.50;22.80
19892;DHT22;10108;50.142;8.724;2022-12-26T08:35:02;10.50;93.30
19892;DHT22;10108;50.142;8.724;2022-12-26T08:37:28;10.50;53.20
19892;DHT22;10108;50.142;8.724;2022-12-26T08:39:54;10.50;72.10
19892;DHT22;10108;50.142;8.724;2022-12-26T08:42:21;10.50;92.90
19892;DHT22;10108;50.142;8.724;2022-12-26T08:44:47;10.60;99.90
19892;DHT22;10108;50.142;8.724;2022-12-26T08:47:13;10.50;99.90
19892;DHT22;10108;50.142;8.724;2022-12-26T08:49:40;10.50;99.90
19892;DHT22;10108;50.142;8.724;2022-12-26T08:52:06;10.60;99.90
19892;DHT22;10108;50.142;8.724;2022-12-26T08:54:32;10.60;99.90
19892;DHT22;10108;50.142;8.724;2022-12-26T08:56:59;10.70;99.90
19892;DHT22;10108;50.142;8.724;2022-12-26T08:59:25;10.70;99.90
19892;DHT22;10108;50.142;8.724;2022-12-26T09:01:51;10.70;99.90
19892;DHT22;10108;50.142;8.724;2022-12-26T09:04:17;10.70;99.90
19892;DHT22;10108;50.142;8.724;2022-12-26T09:06:43;10.60;99.90
19892;DHT22;10108;50.142;8.724;2022-12-26T09:09:10;10.60;99.90
19892;DHT22;10108;50.142;8.724;2022-12-26T09:11:38;10.60;99.90
19892;DHT22;10108;50.142;8.724;2022-12-26T09:14:06;10.60;99.90
19892;DHT22;10108;50.142;8.724;2022-12-26T09:16:35;10.60;99.90
19892;DHT22;10108;50.142;8.724;2022-12-26T09:19:04;10.60;99.90
19892;DHT22;10108;50.142;8.724;2022-12-26T09:21:31;10.60;99.90
19892;DHT22;10108;50.142;8.724;2022-12-26T09:24:00;10.70;99.90
19892;DHT22;10108;50.142;8.724;2022-12-26T09:26:26;10.70;99.90
19892;DHT22;10108;50.142;8.724;2022-12-26T09:28:53;10.70;99.90
19892;DHT22;10108;50.142;8.724;2022-12-26T09:31:24;10.70;99.90
19892;DHT22;10108;50.142;8.724;2022-12-26T09:33:51;10.80;99.90
19892;DHT22;10108;50.142;8.724;2022-12-26T09:36:24;10.80;99.90
19892;DHT22;10108;50.142;8.724;2022-12-26T09:38:51;10.80;99.90
19892;DHT22;10108;50.142;8.724;2022-12-26T09:41:58;10.80;99.90
19892;DHT22;10108;50.142;8.724;2022-12-26T09:52:49;10.90;99.90
19892;DHT22;10108;50.142;8.724;2022-12-26T09:55:41;10.90;99.90
19892;DHT22;10108;50.142;8.724;2022-12-26T10:00:55;10.90;96.30
19892;DHT22;10108;50.142;8.724;2022-12-26T10:03:24;11.00;90.70
19892;DHT22;10108;50.142;8.724;2022-12-26T10:06:07;10.90;79.40
19892;DHT22;10108;50.142;8.724;2022-12-26T10:11:38;11.00;62.90
19892;DHT22;10108;50.142;8.724;2022-12-26T10:25:52;11.00;1.00
19892;DHT22;10108;50.142;8.724;2022-12-26T10:28:47;10.90;1.00
19892;DHT22;10108;50.142;8.724;2022-12-26T10:34:09;11.00;1.00
19892;DHT22;10108;50.142;8.724;2022-12-26T10:36:45;11.00;4.90
19892;DHT22;10108;50.142;8.724;2022-12-26T10:42:02;11.00;8.60
19892;DHT22;10108;50.142;8.724;2022-12-26T10:44:33;11.00;19.60
19892;DHT22;10108;50.142;8.724;2022-12-26T10:47:24;10.90;24.20
19892;DHT22;10108;50.142;8.724;2022-12-26T10:49:51;10.90;1.00
19892;DHT22;10108;50.142;8.724;2022-12-26T10:52:22;10.90;1.00
19892;DHT22;10108;50.142;8.724;2022-12-26T10:54:53;10.90;1.00
19892;DHT22;10108;50.142;8.724;2022-12-26T10:57:22;10.90;1.00
19892;DHT22;10108;50.142;8.724;2022-12-26T10:59:51;10.90;1.00
19892;DHT22;10108;50.142;8.724;2022-12-26T11:02:24;10.90;1.00
19892;DHT22;10108;50.142;8.724;2022-12-26T11:05:03;10.90;1.00
19892;DHT22;10108;50.142;8.724;2022-12-26T11:07:51;10.90;1.00
19892;DHT22;10108;50.142;8.724;2022-12-26T11:10:25;11.00;12.90
19892;DHT22;10108;50.142;8.724;2022-12-26T11:12:55;11.00;12.70
19892;DHT22;10108;50.142;8.724;2022-12-26T11:15:51;11.00;7.00
19892;DHT22;10108;50.142;8.724;2022-12-26T11:18:35;11.00;2.10
19892;DHT22;10108;50.142;8.724;2022-12-26T11:23:42;11.10;1.00
19892;DHT22;10108;50.142;8.724;2022-12-26T11:26:24;11.10;1.00
19892;DHT22;10108;50.142;8.724;2022-12-26T11:31:58;11.20;1.00
19892;DHT22;10108;50.142;8.724;2022-12-26T11:34:29;11.30;1.00
19892;DHT22;10108;50.142;8.724;2022-12-26T11:36:59;11.30;1.00
19892;DHT22;10108;50.142;8.724;2022-12-26T11:39:32;11.30;1.00
19892;DHT22;10108;50.142;8.724;2022-12-26T11:41:58;11.40;1.00
19892;DHT22;10108;50.142;8.724;2022-12-26T11:44:30;11.40;1.00
19892;DHT22;10108;50.142;8.724;2022-12-26T11:47:10;11.40;1.00
19892;DHT22;10108;50.142;8.724;2022-12-26T12:03:03;11.40;99.90
19892;DHT22;10108;50.142;8.724;2022-12-26T12:14:26;11.30;99.90
19892;DHT22;10108;50.142;8.724;2022-12-26T12:25:37;11.30;99.90
19892;DHT22;10108;50.142;8.724;2022-12-26T12:28:44;11.40;99.90
19892;DHT22;10108;50.142;8.724;2022-12-26T12:40:03;11.40;99.90
19892;DHT22;10108;50.142;8.724;2022-12-26T12:45:56;11.50;99.90
19892;DHT22;10108;50.142;8.724;2022-12-26T12:48:34;11.40;99.90
19892;DHT22;10108;50.142;8.724;2022-12-26T12:51:22;11.50;99.90
19892;DHT22;10108;50.142;8.724;2022-12-26T12:54:21;11.50;99.90
19892;DHT22;10108;50.142;8.724;2022-12-26T12:57:13;11.50;99.90
19892;DHT22;10108;50.142;8.724;2022-12-26T13:00:13;11.50;99.90
19892;DHT22;10108;50.142;8.724;2022-12-26T13:02:54;11.40;99.90
19892;DHT22;10108;50.142;8.724;2022-12-26T13:05:42;11.50;99.90
19892;DHT22;10108;50.142;8.724;2022-12-26T13:08:36;11.50;99.90
19892;DHT22;10108;50.142;8.724;2022-12-26T13:11:24;11.50;99.90
19892;DHT22;10108;50.142;8.724;2022-12-26T13:13:59;11.50;99.90
19892;DHT22;10108;50.142;8.724;2022-12-26T13:16:30;11.50;99.90
19892;DHT22;10108;50.142;8.724;2022-12-26T13:19:00;11.50;99.90
19892;DHT22;10108;50.142;8.724;2022-12-26T13:21:30;11.50;99.90
19892;DHT22;10108;50.142;8.724;2022-12-26T13:24:25;11.40;99.90
19892;DHT22;10108;50.142;8.724;2022-12-26T13:32:00;11.30;99.90
19892;DHT22;10108;50.142;8.724;2022-12-26T13:34:27;11.20;99.90
19892;DHT22;10108;50.142;8.724;2022-12-26T13:36:55;11.20;99.90
19892;DHT22;10108;50.142;8.724;2022-12-26T13:44:53;11.00;99.90
19892;DHT22;10108;50.142;8.724;2022-12-26T13:47:37;11.00;99.90
19892;DHT22;10108;50.142;8.724;2022-12-26T13:58:23;10.80;99.90
19892;DHT22;10108;50.142;8.724;2022-12-26T14:00:57;10.80;99.90
19892;DHT22;10108;50.142;8.724;2022-12-26T14:03:31;10.80;99.90
19892;DHT22;10108;50.142;8.724;2022-12-26T14:06:23;10.80;99.90
19892;DHT22;10108;50.142;8.724;2022-12-26T14:12:25;10.70;99.90
19892;DHT22;10108;50.142;8.724;2022-12-26T14:18:15;10.60;99.90
19892;DHT22;10108;50.142;8.724;2022-12-26T14:23:46;10.40;1.00
19892;DHT22;10108;50.142;8.724;2022-12-26T14:35:01;10.10;1.00
19892;DHT22;10108;50.142;8.724;2022-12-26T14:40:36;10.10;15.50
19892;DHT22;10108;50.142;8.724;2022-12-26T14:45:47;9.90;66.60
19892;DHT22;10108;50.142;8.724;2022-12-26T14:50:48;9.90;99.90
19892;DHT22;10108;50.142;8.724;2022-12-26T14:55:50;10.00;99.90
19892;DHT22;10108;50.142;8.724;2022-12-26T14:58:33;10.00;99.90
19892;DHT22;10108;50.142;8.724;2022-12-26T15:17:07;9.90;99.90
19892;DHT22;10108;50.142;8.724;2022-12-26T15:45:24;10.00;99.90
19892;DHT22;10108;50.142;8.724;2022-12-26T15:48:11;9.90;99.90
19892;DHT22;10108;50.142;8.724;2022-12-26T15:51:01;10.00;99.90
19892;DHT22;10108;50.142;8.724;2022-12-26T16:01:52;9.80;99.90
19892;DHT22;10108;50.142;8.724;2022-12-26T16:04:36;9.80;99.90
19892;DHT22;10108;50.142;8.724;2022-12-26T16:10:35;9.70;99.90
19892;DHT22;10108;50.142;8.724;2022-12-26T16:15:48;9.60;99.90
19892;DHT22;10108;50.142;8.724;2022-12-26T16:18:20;9.60;99.90
19892;DHT22;10108;50.142;8.724;2022-12-26T16:20:49;9.60;99.90
19892;DHT22;10108;50.142;8.724;2022-12-26T16:23:38;9.60;99.90
19892;DHT22;10108;50.142;8.724;2022-12-26T16:26:05;9.60;99.90
19892;DHT22;10108;50.142;8.724;2022-12-26T16:28:38;9.70;99.90
19892;DHT22;10108;50.142;8.724;2022-12-26T16:31:06;9.70;99.90
19892;DHT22;10108;50.142;8.724;2022-12-26T16:33:42;9.70;99.90
19892;DHT22;10108;50.142;8.724;2022-12-26T16:36:17;9.70;89.30
19892;DHT22;10108;50.142;8.724;2022-12-26T16:38:44;9.70;65.60
19892;DHT22;10108;50.142;8.724;2022-12-26T16:41:55;9.60;51.10
19892;DHT22;10108;50.142;8.724;2022-12-26T16:44:36;9.60;53.10
19892;DHT22;10108;50.142;8.724;2022-12-26T16:47:06;9.60;50.80
19892;DHT22;10108;50.142;8.724;2022-12-26T16:49:33;9.60;37.90
19892;DHT22;10108;50.142;8.724;2022-12-26T16:51:59;9.60;35.40
19892;DHT22;10108;50.142;8.724;2022-12-26T16:54:44;9.60;42.00
19892;DHT22;10108;50.142;8.724;2022-12-26T17:02:33;9.50;55.80
19892;DHT22;10108;50.142;8.724;2022-12-26T17:05:16;9.50;96.80
19892;DHT22;10108;50.142;8.724;2022-12-26T17:07:47;9.50;99.90
19892;DHT22;10108;50.142;8.724;2022-12-26T17:10:26;9.50;99.90
19892;DHT22;10108;50.142;8.724;2022-12-26T17:12:55;9.50;99.90
19892;DHT22;10108;50.142;8.724;2022-12-26T17:15:28;9.50;99.90
19892;DHT22;10108;50.142;8.724;2022-12-26T17:17:56;9.50;99.90
19892;DHT22;10108;50.142;8.724;2022-12-26T17:22:51;9.50;99.90
19892;DHT22;10108;50.142;8.724;2022-12-26T17:25:18;9.50;99.90
19892;DHT22;10108;50.142;8.724;2022-12-26T17:27:48;9.50;99.90
19892;DHT22;10108;50.142;8.724;2022-12-26T17:30:44;9.60;99.90
19892;DHT22;10108;50.142;8.724;2022-12-26T17:33:22;9.50;99.90
19892;DHT22;10108;50.142;8.724;2022-12-26T17:35:57;9.50;99.90
19892;DHT22;10108;50.142;8.724;2022-12-26T17:38:25;9.50;99.90
19892;DHT22;10108;50.142;8.724;2022-12-26T17:40:56;9.30;99.90
19892;DHT22;10108;50.142;8.724;2022-12-26T17:43:31;9.20;99.90
19892;DHT22;10108;50.142;8.724;2022-12-26T17:45:58;9.20;99.90
19892;DHT22;10108;50.142;8.724;2022-12-26T17:48:24;9.20;99.90
19892;DHT22;10108;50.142;8.724;2022-12-26T17:50:57;9.10;1.00
19892;DHT22;10108;50.142;8.724;2022-12-26T17:55:54;9.20;99.90
19892;DHT22;10108;50.142;8.724;2022-12-26T17:58:21;9.10;99.90
19892;DHT22;10108;50.142;8.724;2022-12-26T18:00:48;9.10;99.90
19892;DHT22;10108;50.142;8.724;2022-12-26T18:03:14;9.10;99.90
19892;DHT22;10108;50.142;8.724;2022-12-26T18:05:41;9.10;99.90
19892;DHT22;10108;50.142;8.724;2022-12-26T18:08:18;9.10;99.90
19892;DHT22;10108;50.142;8.724;2022-12-26T18:10:46;9.10;99.90
19892;DHT22;10108;50.142;8.724;2022-12-26T18:13:14;9.20;99.90
19892;DHT22;10108;50.142;8.724;2022-12-26T18:15:41;9.20;99.90
19892;DHT22;10108;50.142;8.724;2022-12-26T18:18:36;9.30;99.90
19892;DHT22;10108;50.142;8.724;2022-12-26T18:21:04;9.40;99.90
19892;DHT22;10108;50.142;8.724;2022-12-26T18:23:31;9.50;99.90
19892;DHT22;10108;50.142;8.724;2022-12-26T18:26:06;9.50;99.90
19892;DHT22;10108;50.142;8.724;2022-12-26T18:28:33;9.50;99.90
19892;DHT22;10108;50.142;8.724;2022-12-26T18:30:59;9.50;99.90
19892;DHT22;10108;50.142;8.724;2022-12-26T18:33:26;9.50;99.90
19892;DHT22;10108;50.142;8.724;2022-12-26T18:35:52;9.50;78.50
19892;DHT22;10108;50.142;8.724;2022-12-26T18:38:19;9.50;57.80
19892;DHT22;10108;50.142;8.724;2022-12-26T18:40:51;9.50;43.50
19892;DHT22;10108;50.142;8.724;2022-12-26T18:43:22;9.50;16.30
19892;DHT22;10108;50.142;8.724;2022-12-26T18:45:48;9.40;1.00
19892;DHT22;10108;50.142;8.724;2022-12-26T18:48:15;9.40;1.00
19892;DHT22;10108;50.142;8.724;2022-12-26T18:50:42;9.30;1.00
19892;DHT22;10108;50.142;8.724;2022-12-26T18:53:08;9.30;1.00
19892;DHT22;10108;50.142;8.724;2022-12-26T18:55:34;9.30;1.00
19892;DHT22;10108;50.142;8.724;2022-12-26T18:58:00;9.20;1.00
19892;DHT22;10108;50.142;8.724;2022-12-26T19:00:26;9.20;1.00
19892;DHT22;10108;50.142;8.724;2022-12-26T19:02:52;9.10;1.00
19892;DHT22;10108;50.142;8.724;2022-12-26T19:05:23;9.00;1.00
19892;DHT22;10108;50.142;8.724;2022-12-26T19:07:51;9.00;1.00
19892;DHT22;10108;50.142;8.724;2022-12-26T19:10:19;8.80;1.00
19892;DHT22;10108;50.142;8.724;2022-12-26T19:12:46;8.80;1.00
19892;DHT22;10108;50.142;8.724;2022-12-26T19:15:13;8.80;1.00
19892;DHT22;10108;50.142;8.724;2022-12-26T19:17:40;8.80;1.00
19892;DHT22;10108;50.142;8.724;2022-12-26T19:20:20;8.70;1.00
19892;DHT22;10108;50.142;8.724;2022-12-26T19:22:47;8.60;1.00
19892;DHT22;10108;50.142;8.724;2022-12-26T19:25:14;8.60;1.00
19892;DHT22;10108;50.142;8.724;2022-12-26T19:27:41;8.60;1.00
19892;DHT22;10108;50.142;8.724;2022-12-26T19:30:07;8.60;1.00
19892;DHT22;10108;50.142;8.724;2022-12-26T19:32:34;8.60;1.00
19892;DHT22;10108;50.142;8.724;2022-12-26T19:35:00;8.60;1.00
19892;DHT22;10108;50.142;8.724;2022-12-26T19:37:26;8.50;1.00
19892;DHT22;10108;50.142;8.724;2022-12-26T19:39:54;8.50;1.00
19892;DHT22;10108;50.142;8.724;2022-12-26T19:42:20;8.40;1.00
19892;DHT22;10108;50.142;8.724;2022-12-26T19:44:46;8.30;1.00
19892;DHT22;10108;50.142;8.724;2022-12-26T19:47:13;8.30;1.00
19892;DHT22;10108;50.142;8.724;2022-12-26T19:49:40;8.30;1.00
19892;DHT22;10108;50.142;8.724;2022-12-26T19:52:07;8.30;1.00
19892;DHT22;10108;50.142;8.724;2022-12-26T19:54:33;8.30;1.00
19892;DHT22;10108;50.142;8.724;2022-12-26T19:56:59;8.30;1.00
19892;DHT22;10108;50.142;8.724;2022-12-26T19:59:26;8.30;1.00
19892;DHT22;10108;50.142;8.724;2022-12-26T20:01:52;8.40;1.00
19892;DHT22;10108;50.142;8.724;2022-12-26T20:04:18;8.40;1.00
19892;DHT22;10108;50.142;8.724;2022-12-26T20:06:44;8.40;1.00
19892;DHT22;10108;50.142;8.724;2022-12-26T20:09:14;8.50;1.00
19892;DHT22;10108;50.142;8.724;2022-12-26T20:11:44;8.50;1.00
19892;DHT22;10108;50.142;8.724;2022-12-26T20:14:17;8.50;1.00
19892;DHT22;10108;50.142;8.724;2022-12-26T20:16:43;8.60;1.00
19892;DHT22;10108;50.142;8.724;2022-12-26T20:19:10;8.60;1.00
19892;DHT22;10108;50.142;8.724;2022-12-26T20:21:36;8.60;1.00
19892;DHT22;10108;50.142;8.724;2022-12-26T20:24:03;8.60;99.90